Time;durP1;ratioP1;P1;durP2;ratioP2;P2;SDS_P1;SDS_P2;PMS_P1;PMS_P2;Temp;Humidity;BMP_temperature;BMP_pressure;BME280_temperature;BME280_humidity;BME280_pressure;Samples;Min_cycle;Max_cycle;Signal;HPM_P1;HPM_P2
2019/05/12 00:01:07;;;;;;;0.9;0.9;;;;;;;;;;;;;
2019/05/12 00:03:25;;;;;;;0.9;0.9;;;;;;;;;;;;;
2019/05/12 00:05:50;;;;;;;1.3;1.2;;;;;;;;;;;;;
2019/05/12 00:08:15;;;;;;;1;1;;;;;;;;;;;;;
2019/05/12 00:10:40;;;;;;;1.5;1.1;;;;;;;;;;;;;
2019/05/12 00:13:05;;;;;;;1.7;1.2;;;;;;;;;;;;;
2019/05/12 00:15:31;;;;;;;1.3;1.2;;;;;;;;;;;;;
2019/05/12 00:17:56;;;;;;;1.2;1.2;;;;;;;;;;;;;
2019/05/12 00:20:21;;;;;;;1.1;1.1;;;;;;;;;;;;;
2019/05/12 00:22:49;;;;;;;1.6;1.5;;;;;;;;;;;;;
2019/05/12 00:25:11;;;;;;;1.4;1.3;;;;;;;;;;;;;
2019/05/12 00:27:36;;;;;;;1.4;1.3;;;;;;;;;;;;;
2019/05/12 00:30:01;;;;;;;1.4;1.3;;;;;;;;;;;;;
2019/05/12 00:32:26;;;;;;;1.5;1.4;;;;;;;;;;;;;
2019/05/12 00:34:52;;;;;;;1.7;1.6;;;;;;;;;;;;;
2019/05/12 00:37:17;;;;;;;1.8;1.7;;;;;;;;;;;;;
2019/05/12 00:39:42;;;;;;;1.7;1.6;;;;;;;;;;;;;
2019/05/12 00:42:07;;;;;;;1.9;1.7;;;;;;;;;;;;;
2019/05/12 00:44:32;;;;;;;2.7;1.9;;;;;;;;;;;;;
2019/05/12 00:46:57;;;;;;;1.9;1.8;;;;;;;;;;;;;
2019/05/12 00:49:22;;;;;;;2;1.9;;;;;;;;;;;;;
2019/05/12 00:51:47;;;;;;;2.1;2;;;;;;;;;;;;;
2019/05/12 00:54:12;;;;;;;2.2;2;;;;;;;;;;;;;
2019/05/12 00:56:37;;;;;;;2.1;2;;;;;;;;;;;;;
2019/05/12 00:59:02;;;;;;;2.4;2.2;;;;;;;;;;;;;
2019/05/12 01:01:27;;;;;;;3.2;2.1;;;;;;;;;;;;;
2019/05/12 01:03:53;;;;;;;2.1;2;;;;;;;;;;;;;
2019/05/12 01:06:18;;;;;;;2.5;2.3;;;;;;;;;;;;;
2019/05/12 01:08:44;;;;;;;2.3;2.2;;;;;;;;;;;;;
2019/05/12 01:11:10;;;;;;;2.5;2.1;;;;;;;;;;;;;
2019/05/12 01:13:35;;;;;;;2.3;2.1;;;;;;;;;;;;;
2019/05/12 01:16:00;;;;;;;2.2;2.1;;;;;;;;;;;;;
2019/05/12 01:18:25;;;;;;;2.7;2.3;;;;;;;;;;;;;
2019/05/12 01:20:50;;;;;;;3.4;2.1;;;;;;;;;;;;;
2019/05/12 01:23:15;;;;;;;2.1;1.9;;;;;;;;;;;;;
2019/05/12 01:25:40;;;;;;;2.4;2.2;;;;;;;;;;;;;
2019/05/12 01:28:06;;;;;;;2.8;2.3;;;;;;;;;;;;;
2019/05/12 01:30:31;;;;;;;2.4;2.2;;;;;;;;;;;;;
2019/05/12 01:32:56;;;;;;;2.6;2.4;;;;;;;;;;;;;
2019/05/12 01:35:22;;;;;;;2.4;2.2;;;;;;;;;;;;;
2019/05/12 01:37:47;;;;;;;2.6;2.4;;;;;;;;;;;;;
2019/05/12 01:40:12;;;;;;;2.5;2.2;;;;;;;;;;;;;
2019/05/12 01:42:37;;;;;;;2.3;2.1;;;;;;;;;;;;;
2019/05/12 01:45:02;;;;;;;3.3;2.6;;;;;;;;;;;;;
2019/05/12 01:47:27;;;;;;;2.7;2.5;;;;;;;;;;;;;
2019/05/12 01:49:52;;;;;;;2.5;2.1;;;;;;;;;;;;;
2019/05/12 01:52:17;;;;;;;2.8;2.4;;;;;;;;;;;;;
2019/05/12 01:54:43;;;;;;;2.7;2.5;;;;;;;;;;;;;
2019/05/12 01:57:08;;;;;;;3.1;2.8;;;;;;;;;;;;;
2019/05/12 01:59:33;;;;;;;2.6;2.4;;;;;;;;;;;;;
2019/05/12 02:01:58;;;;;;;2.7;2.5;;;;;;;;;;;;;
2019/05/12 02:04:23;;;;;;;2.3;2;;;;;;;;;;;;;
2019/05/12 02:06:48;;;;;;;2.5;2.3;;;;;;;;;;;;;
2019/05/12 02:09:15;;;;;;;2.7;2.5;;;;;;;;;;;;;
2019/05/12 02:11:40;;;;;;;2.3;2.1;;;;;;;;;;;;;
2019/05/12 02:14:05;;;;;;;2.3;2.1;;;;;;;;;;;;;
2019/05/12 02:16:30;;;;;;;2.2;2;;;;;;;;;;;;;
2019/05/12 02:18:55;;;;;;;2.5;2.3;;;;;;;;;;;;;
2019/05/12 02:21:20;;;;;;;2.4;2.2;;;;;;;;;;;;;
2019/05/12 02:23:45;;;;;;;2.6;2.4;;;;;;;;;;;;;
2019/05/12 02:26:11;;;;;;;2.2;2;;;;;;;;;;;;;
2019/05/12 02:28:36;;;;;;;2.9;2.1;;;;;;;;;;;;;
2019/05/12 02:31:01;;;;;;;2.5;2.3;;;;;;;;;;;;;
2019/05/12 02:33:27;;;;;;;2.9;2.1;;;;;;;;;;;;;
2019/05/12 02:35:52;;;;;;;2.2;2;;;;;;;;;;;;;
2019/05/12 02:38:17;;;;;;;2.8;2.2;;;;;;;;;;;;;
2019/05/12 02:40:42;;;;;;;2.9;2.6;;;;;;;;;;;;;
2019/05/12 02:43:07;;;;;;;2.6;2.4;;;;;;;;;;;;;
2019/05/12 02:45:32;;;;;;;3.2;2.8;;;;;;;;;;;;;
2019/05/12 02:47:57;;;;;;;2.5;2.3;;;;;;;;;;;;;
2019/05/12 02:50:22;;;;;;;2.4;2;;;;;;;;;;;;;
2019/05/12 02:52:48;;;;;;;2.3;2;;;;;;;;;;;;;
2019/05/12 02:55:13;;;;;;;2.5;2.2;;;;;;;;;;;;;
2019/05/12 02:57:38;;;;;;;2.8;2.3;;;;;;;;;;;;;
2019/05/12 03:00:04;;;;;;;2.4;2;;;;;;;;;;;;;
2019/05/12 03:02:28;;;;;;;2.3;2.1;;;;;;;;;;;;;
2019/05/12 03:04:53;;;;;;;2.5;1.9;;;;;;;;;;;;;
2019/05/12 03:07:18;;;;;;;2.4;2;;;;;;;;;;;;;
2019/05/12 03:09:43;;;;;;;2;1.8;;;;;;;;;;;;;
2019/05/12 03:12:08;;;;;;;2.2;2;;;;;;;;;;;;;
2019/05/12 03:14:33;;;;;;;2.8;2.2;;;;;;;;;;;;;
2019/05/12 03:16:59;;;;;;;2.9;2;;;;;;;;;;;;;
2019/05/12 03:19:24;;;;;;;2;1.9;;;;;;;;;;;;;
2019/05/12 03:21:49;;;;;;;2.7;2.4;;;;;;;;;;;;;
2019/05/12 03:24:14;;;;;;;2.4;2.2;;;;;;;;;;;;;
2019/05/12 03:26:39;;;;;;;3;2.5;;;;;;;;;;;;;
2019/05/12 03:29:04;;;;;;;2.6;2.4;;;;;;;;;;;;;
2019/05/12 03:31:29;;;;;;;2.7;2.4;;;;;;;;;;;;;
2019/05/12 03:33:54;;;;;;;2.5;2.3;;;;;;;;;;;;;
2019/05/12 03:36:19;;;;;;;3.6;2.7;;;;;;;;;;;;;
2019/05/12 03:38:44;;;;;;;2.8;2.3;;;;;;;;;;;;;
2019/05/12 03:41:09;;;;;;;3;2.6;;;;;;;;;;;;;
2019/05/12 03:43:34;;;;;;;2.7;2.4;;;;;;;;;;;;;
2019/05/12 03:46:00;;;;;;;4.3;2.8;;;;;;;;;;;;;
2019/05/12 03:48:26;;;;;;;3.1;2.6;;;;;;;;;;;;;
2019/05/12 03:50:51;;;;;;;2.9;2.6;;;;;;;;;;;;;
2019/05/12 03:53:16;;;;;;;2.9;2.7;;;;;;;;;;;;;
2019/05/12 03:55:41;;;;;;;2.9;2.6;;;;;;;;;;;;;
2019/05/12 03:58:06;;;;;;;3.6;2.9;;;;;;;;;;;;;
2019/05/12 04:02:28;;;;;;;3.1;2.8;;;;;;;6.44;90.87598;965.5756;;;;
2019/05/12 04:04:53;;;;;;;5;3;;;;;;;6.4;89.17969;965.5998;;;;
2019/05/12 04:07:19;;;;;;;4;3.5;;;;;;;6.36;90.08203;965.6931;;;;
2019/05/12 04:09:44;;;;;;;3.9;3.2;;;;;;;6.44;89.68848;965.6926;;;;
2019/05/12 04:12:09;;;;;;;3.8;3.2;;;;;;;6.4;89.08691;965.6859;;;;
2019/05/12 04:14:36;;;;;;;3.6;3.3;;;;;;;6.4;89.25977;965.8111;;;;
2019/05/12 04:17:01;;;;;;;3.6;3.2;;;;;;;6.35;88.72461;965.7885;;;;
2019/05/12 04:19:26;;;;;;;5.2;3.7;;;;;;;6.31;89.38965;965.8211;;;;
2019/05/12 04:21:51;;;;;;;4.3;3.7;;;;;;;6.27;89.52832;965.7976;;;;
2019/05/12 04:24:16;;;;;;;5.3;3.9;;;;;;;6.25;89.26074;965.9283;;;;
2019/05/12 04:26:42;;;;;;;4.6;3.7;;;;;;;6.17;88.96094;965.9113;;;;
2019/05/12 04:29:07;;;;;;;4.5;4.1;;;;;;;6.11;90.18945;966.062;;;;
2019/05/12 04:31:33;;;;;;;4.9;3.7;;;;;;;6.11;89.88184;966.0056;;;;
2019/05/12 04:33:58;;;;;;;4.9;4.4;;;;;;;6.15;90.44922;966.1369;;;;
2019/05/12 04:36:24;;;;;;;6.2;4;;;;;;;6.14;90.58398;966.1763;;;;
2019/05/12 04:38:49;;;;;;;5.7;3.9;;;;;;;6.2;88.76074;966.1819;;;;
2019/05/12 04:41:14;;;;;;;5.7;4;;;;;;;6.07;88.66699;966.2151;;;;
2019/05/12 04:43:40;;;;;;;4.6;3.8;;;;;;;6.11;88.49219;966.2951;;;;
2019/05/12 04:46:05;;;;;;;6.1;4.2;;;;;;;6.15;89.59473;966.3487;;;;
2019/05/12 04:48:30;;;;;;;6.4;4.3;;;;;;;6.05;89.84766;966.3847;;;;
2019/05/12 04:50:56;;;;;;;5.9;4.4;;;;;;;6.01;90.39648;966.4772;;;;
2019/05/12 04:53:21;;;;;;;6;4.3;;;;;;;6.07;89.07715;966.6035;;;;
2019/05/12 04:55:46;;;;;;;7;4.5;;;;;;;6.02;89.27051;966.5894;;;;
2019/05/12 04:58:11;;;;;;;5.2;4.3;;;;;;;6.05;89.66504;966.6394;;;;
2019/05/12 05:00:36;;;;;;;5.4;4.2;;;;;;;5.99;89.39063;966.66;;;;
2019/05/12 05:03:02;;;;;;;6.3;4.7;;;;;;;6.04;90.19824;966.7647;;;;
2019/05/12 05:05:27;;;;;;;6.3;4.6;;;;;;;6.11;89.37109;966.7735;;;;
2019/05/12 05:07:52;;;;;;;5.6;4.6;;;;;;;6.08;89.94434;966.9136;;;;
2019/05/12 05:10:17;;;;;;;5.5;4.3;;;;;;;6.1;89.9502;966.9467;;;;
2019/05/12 05:12:45;;;;;;;6.3;4.3;;;;;;;6.05;90.04102;966.9542;;;;
2019/05/12 05:15:10;;;;;;;6.7;4.9;;;;;;;6.04;90.75684;967.0712;;;;
2019/05/12 05:17:36;;;;;;;6.9;4.9;;;;;;;6.06;90.49707;967.0743;;;;
2019/05/12 05:20:01;;;;;;;6.8;5.4;;;;;;;6.09;91.4834;967.1331;;;;
2019/05/12 05:22:26;;;;;;;5.9;4.3;;;;;;;6.02;89.74902;967.2019;;;;
2019/05/12 05:24:53;;;;;;;6.8;4.8;;;;;;;6.08;90.78711;967.2072;;;;
2019/05/12 05:27:18;;;;;;;5.7;4.1;;;;;;;6.06;89.64258;967.3809;;;;
2019/05/12 05:29:45;;;;;;;5.7;4.2;;;;;;;6.02;89.36328;967.4255;;;;
2019/05/12 05:32:10;;;;;;;5.9;4;;;;;;;5.98;88.68066;967.368;;;;
2019/05/12 05:34:35;;;;;;;5.1;3.9;;;;;;;5.95;89.87012;967.4385;;;;
2019/05/12 05:37:00;;;;;;;6.7;4.3;;;;;;;5.88;89.03711;967.4075;;;;
2019/05/12 05:39:25;;;;;;;4.5;3.5;;;;;;;5.91;87.83594;967.531;;;;
2019/05/12 05:41:52;;;;;;;5.4;4.3;;;;;;;5.81;89.36621;967.5149;;;;
2019/05/12 05:44:17;;;;;;;6.2;4.1;;;;;;;5.78;89.58594;967.5642;;;;
2019/05/12 05:46:46;;;;;;;6.7;4;;;;;;;5.79;90.15723;967.6714;;;;
2019/05/12 05:49:09;;;;;;;7;3.7;;;;;;;5.82;87.51074;967.7344;;;;
2019/05/12 05:51:34;;;;;;;5.9;3.9;;;;;;;5.75;89.04395;967.76;;;;
2019/05/12 05:53:59;;;;;;;5.2;3.8;;;;;;;5.7;89;967.8359;;;;
2019/05/12 05:56:24;;;;;;;5.1;4;;;;;;;5.73;89.83691;967.9247;;;;
2019/05/12 05:58:50;;;;;;;5.3;4.1;;;;;;;5.74;90.72656;967.9288;;;;
2019/05/12 06:01:15;;;;;;;5.6;3.9;;;;;;;5.67;88.69531;967.9069;;;;
2019/05/12 06:03:42;;;;;;;4.9;3.3;;;;;;;5.61;87.43457;968.0566;;;;
2019/05/12 06:06:07;;;;;;;5.4;3.2;;;;;;;5.55;87.3418;968.0424;;;;
2019/05/12 06:08:32;;;;;;;5.8;3.7;;;;;;;5.58;88.94238;968.0925;;;;
2019/05/12 06:10:57;;;;;;;6.2;4.3;;;;;;;5.58;87.62012;968.0107;;;;
2019/05/12 06:13:22;;;;;;;6.1;4.1;;;;;;;5.51;88.06055;967.9886;;;;
2019/05/12 06:15:47;;;;;;;5.1;3.6;;;;;;;5.52;88.01855;968.057;;;;
2019/05/12 06:18:12;;;;;;;6.3;3.6;;;;;;;5.46;86.77539;968.1249;;;;
2019/05/12 06:20:37;;;;;;;6.2;4;;;;;;;5.6;88.51367;968.1519;;;;
2019/05/12 06:23:02;;;;;;;7;3.9;;;;;;;5.59;88.46387;968.1867;;;;
2019/05/12 06:25:27;;;;;;;5;3.5;;;;;;;5.63;88.10742;968.1766;;;;
2019/05/12 06:27:54;;;;;;;6.2;3.7;;;;;;;5.67;87.77539;968.2473;;;;
2019/05/12 06:30:19;;;;;;;6.2;3.8;;;;;;;5.63;87.62988;968.28;;;;
2019/05/12 06:32:44;;;;;;;5.8;3.4;;;;;;;5.7;87.15527;968.3622;;;;
2019/05/12 06:35:10;;;;;;;4.9;3.5;;;;;;;5.7;86.53125;968.3445;;;;
2019/05/12 06:37:35;;;;;;;5.4;3.3;;;;;;;5.7;86.47363;968.431;;;;
2019/05/12 06:40:00;;;;;;;5.9;3.9;;;;;;;5.66;86.90918;968.4766;;;;
2019/05/12 06:42:25;;;;;;;6.1;3.7;;;;;;;;;;;;;
2019/05/12 06:44:50;;;;;;;7.6;3.6;;;;;;;;;;;;;
2019/05/12 06:47:15;;;;;;;5.5;4.2;;;;;;;;;;;;;
2019/05/12 06:49:43;;;;;;;6.4;3.6;;;;;;;;;;;;;
2019/05/12 06:52:08;;;;;;;6.2;4;;;;;;;;;;;;;
2019/05/12 06:54:33;;;;;;;7;4.1;;;;;;;;;;;;;
2019/05/12 06:56:58;;;;;;;7.5;4.3;;;;;;;;;;;;;
2019/05/12 06:59:23;;;;;;;7.7;3.9;;;;;;;;;;;;;
2019/05/12 07:01:48;;;;;;;5.9;3.7;;;;;;;;;;;;;
2019/05/12 07:04:14;;;;;;;5.1;3.8;;;;;;;;;;;;;
2019/05/12 07:06:39;;;;;;;5.2;3.9;;;;;;;;;;;;;
2019/05/12 07:09:05;;;;;;;7.8;4;;;;;;;;;;;;;
2019/05/12 07:11:29;;;;;;;6.6;4.3;;;;;;;;;;;;;
2019/05/12 07:13:54;;;;;;;6.6;4;;;;;;;;;;;;;
2019/05/12 07:16:20;;;;;;;6;4.2;;;;;;;;;;;;;
2019/05/12 07:18:45;;;;;;;6.4;4.2;;;;;;;;;;;;;
2019/05/12 07:21:10;;;;;;;6.9;4.5;;;;;;;;;;;;;
2019/05/12 07:23:35;;;;;;;7.1;5.1;;;;;;;;;;;;;
2019/05/12 07:26:00;;;;;;;7.4;5;;;;;;;;;;;;;
2019/05/12 07:28:25;;;;;;;8.5;5.6;;;;;;;;;;;;;
2019/05/12 07:30:50;;;;;;;7.5;5.4;;;;;;;;;;;;;
2019/05/12 07:33:17;;;;;;;9.5;5.7;;;;;;;;;;;;;
2019/05/12 07:35:42;;;;;;;8.7;5.7;;;;;;;;;;;;;
2019/05/12 07:38:07;;;;;;;7.6;5.9;;;;;;;;;;;;;
2019/05/12 07:40:32;;;;;;;9.4;6.2;;;;;;;;;;;;;
2019/05/12 07:42:57;;;;;;;8.2;5.8;;;;;;;;;;;;;
2019/05/12 07:45:22;;;;;;;8.6;6.3;;;;;;;;;;;;;
2019/05/12 07:47:47;;;;;;;9.6;7.2;;;;;;;;;;;;;
2019/05/12 07:50:13;;;;;;;10.7;6.8;;;;;;;;;;;;;
2019/05/12 07:52:38;;;;;;;12;7.2;;;;;;;;;;;;;
2019/05/12 07:55:03;;;;;;;9.2;7;;;;;;;;;;;;;
2019/05/12 07:57:28;;;;;;;9.4;7.3;;;;;;;;;;;;;
2019/05/12 07:59:53;;;;;;;10;8.1;;;;;;;;;;;;;
2019/05/12 08:02:18;;;;;;;9.2;7.5;;;;;;;;;;;;;
2019/05/12 08:04:43;;;;;;;10.4;7.5;;;;;;;;;;;;;
2019/05/12 08:07:09;;;;;;;8.9;7;;;;;;;;;;;;;
2019/05/12 08:09:34;;;;;;;10.2;7.8;;;;;;;;;;;;;
2019/05/12 08:12:00;;;;;;;9.7;8.3;;;;;;;;;;;;;
2019/05/12 08:14:25;;;;;;;11.2;8.9;;;;;;;;;;;;;
2019/05/12 08:16:50;;;;;;;11.7;8.1;;;;;;;;;;;;;
2019/05/12 08:19:15;;;;;;;9.1;7.9;;;;;;;;;;;;;
2019/05/12 08:21:40;;;;;;;8.2;6.7;;;;;;;;;;;;;
2019/05/12 08:24:05;;;;;;;9;7.6;;;;;;;;;;;;;
2019/05/12 08:26:30;;;;;;;9.4;7.2;;;;;;;;;;;;;
2019/05/12 08:28:55;;;;;;;10.8;7.4;;;;;;;;;;;;;
2019/05/12 08:31:20;;;;;;;10.4;8.2;;;;;;;;;;;;;
2019/05/12 08:33:45;;;;;;;9.7;8.1;;;;;;;;;;;;;
2019/05/12 08:36:10;;;;;;;10.5;7.8;;;;;;;;;;;;;
2019/05/12 08:38:35;;;;;;;12.1;8.7;;;;;;;;;;;;;
2019/05/12 08:41:01;;;;;;;11.7;8.6;;;;;;;;;;;;;
2019/05/12 08:43:26;;;;;;;9.1;7.9;;;;;;;;;;;;;
2019/05/12 08:45:51;;;;;;;10.5;9.4;;;;;;;;;;;;;
2019/05/12 08:48:16;;;;;;;11.5;9.2;;;;;;;;;;;;;
2019/05/12 08:50:41;;;;;;;10.3;8.5;;;;;;;;;;;;;
2019/05/12 08:53:06;;;;;;;12.9;10.1;;;;;;;;;;;;;
2019/05/12 08:55:31;;;;;;;12.9;9.6;;;;;;;;;;;;;
2019/05/12 08:57:56;;;;;;;13.8;10.1;;;;;;;;;;;;;
2019/05/12 09:00:21;;;;;;;11.1;8.7;;;;;;;;;;;;;
2019/05/12 09:02:46;;;;;;;11.1;9.6;;;;;;;;;;;;;
2019/05/12 09:05:11;;;;;;;13;9.8;;;;;;;;;;;;;
2019/05/12 09:07:37;;;;;;;11.3;9.1;;;;;;;;;;;;;
2019/05/12 09:10:02;;;;;;;11.1;9.4;;;;;;;;;;;;;
2019/05/12 09:12:28;;;;;;;12.2;9.7;;;;;;;;;;;;;
2019/05/12 09:14:53;;;;;;;12.1;9.1;;;;;;;;;;;;;
2019/05/12 09:17:18;;;;;;;12.1;8.6;;;;;;;;;;;;;
2019/05/12 09:19:43;;;;;;;10.8;8.6;;;;;;;;;;;;;
2019/05/12 09:22:08;;;;;;;9.8;7.7;;;;;;;;;;;;;
2019/05/12 09:24:33;;;;;;;11.6;8.5;;;;;;;;;;;;;
2019/05/12 09:26:58;;;;;;;15.6;10.1;;;;;;;;;;;;;
2019/05/12 09:29:23;;;;;;;11.2;8.5;;;;;;;;;;;;;
2019/05/12 09:31:48;;;;;;;10.1;7.9;;;;;;;;;;;;;
2019/05/12 09:34:13;;;;;;;10.3;8.2;;;;;;;;;;;;;
2019/05/12 09:36:39;;;;;;;12.4;9.9;;;;;;;;;;;;;
2019/05/12 09:39:05;;;;;;;10.7;8.5;;;;;;;;;;;;;
2019/05/12 09:41:29;;;;;;;11.1;9.2;;;;;;;;;;;;;
2019/05/12 09:43:54;;;;;;;14.2;9.8;;;;;;;;;;;;;
2019/05/12 09:46:20;;;;;;;12.7;9.9;;;;;;;;;;;;;
2019/05/12 09:48:45;;;;;;;14.4;10.6;;;;;;;;;;;;;
2019/05/12 09:51:10;;;;;;;13.4;10.4;;;;;;;;;;;;;
2019/05/12 09:53:35;;;;;;;12.3;10.5;;;;;;;;;;;;;
2019/05/12 09:56:00;;;;;;;13.5;10.6;;;;;;;;;;;;;
2019/05/12 09:58:25;;;;;;;13;10;;;;;;;;;;;;;
2019/05/12 10:00:50;;;;;;;12.9;11.5;;;;;;;;;;;;;
2019/05/12 10:03:15;;;;;;;17.2;13.3;;;;;;;;;;;;;
2019/05/12 10:05:40;;;;;;;14.9;12.3;;;;;;;;;;;;;
2019/05/12 10:08:05;;;;;;;14.3;11.2;;;;;;;;;;;;;
2019/05/12 10:10:31;;;;;;;13.3;11.1;;;;;;;;;;;;;
2019/05/12 10:12:56;;;;;;;15.1;11.2;;;;;;;;;;;;;
2019/05/12 10:15:21;;;;;;;14;10.8;;;;;;;;;;;;;
2019/05/12 10:17:46;;;;;;;11.1;9.9;;;;;;;;;;;;;
2019/05/12 10:20:11;;;;;;;12.2;10;;;;;;;;;;;;;
2019/05/12 10:22:37;;;;;;;12.5;9.9;;;;;;;;;;;;;
2019/05/12 10:25:01;;;;;;;13.8;9.5;;;;;;;;;;;;;
2019/05/12 10:27:26;;;;;;;14.1;11.6;;;;;;;;;;;;;
2019/05/12 10:29:51;;;;;;;11.7;10.2;;;;;;;;;;;;;
2019/05/12 10:32:17;;;;;;;13.3;11.9;;;;;;;;;;;;;
2019/05/12 10:34:42;;;;;;;12.3;9.8;;;;;;;;;;;;;
2019/05/12 10:37:07;;;;;;;12.1;9.2;;;;;;;;;;;;;
2019/05/12 10:39:32;;;;;;;13.1;10.2;;;;;;;;;;;;;
2019/05/12 10:41:57;;;;;;;12.9;10.9;;;;;;;;;;;;;
2019/05/12 10:44:22;;;;;;;13.4;9.9;;;;;;;;;;;;;
2019/05/12 10:46:50;;;;;;;11.7;9.9;;;;;;;;;;;;;
2019/05/12 10:49:15;;;;;;;14.3;11.5;;;;;;;;;;;;;
2019/05/12 10:51:40;;;;;;;13;10;;;;;;;;;;;;;
2019/05/12 10:54:05;;;;;;;13.5;10.3;;;;;;;;;;;;;
2019/05/12 10:56:30;;;;;;;14.2;11;;;;;;;;;;;;;
2019/05/12 10:58:55;;;;;;;13.6;10.4;;;;;;;;;;;;;
2019/05/12 11:01:21;;;;;;;10.8;9.7;;;;;;;;;;;;;
2019/05/12 11:03:46;;;;;;;13.4;9.9;;;;;;;;;;;;;
2019/05/12 11:06:11;;;;;;;13.8;10.4;;;;;;;;;;;;;
2019/05/12 11:08:36;;;;;;;13.1;10.2;;;;;;;;;;;;;
2019/05/12 11:11:01;;;;;;;12.3;9.1;;;;;;;;;;;;;
2019/05/12 11:13:26;;;;;;;12.7;9.4;;;;;;;;;;;;;
2019/05/12 11:15:51;;;;;;;10.9;9.3;;;;;;;;;;;;;
2019/05/12 11:18:18;;;;;;;12;9.3;;;;;;;;;;;;;
2019/05/12 11:20:42;;;;;;;10.9;8.3;;;;;;;;;;;;;
2019/05/12 11:23:07;;;;;;;11;8.3;;;;;;;;;;;;;
2019/05/12 11:25:32;;;;;;;11.3;9;;;;;;;;;;;;;
2019/05/12 11:27:58;;;;;;;12.5;8.9;;;;;;;;;;;;;
2019/05/12 11:30:23;;;;;;;12;8.9;;;;;;;;;;;;;
2019/05/12 11:32:49;;;;;;;11.5;8.8;;;;;;;;;;;;;
2019/05/12 11:35:14;;;;;;;14.3;10.3;;;;;;;;;;;;;
2019/05/12 11:37:39;;;;;;;13.2;10.4;;;;;;;;;;;;;
2019/05/12 11:40:04;;;;;;;11.2;9.1;;;;;;;;;;;;;
2019/05/12 11:42:29;;;;;;;10.1;8.3;;;;;;;;;;;;;
2019/05/12 11:44:55;;;;;;;9.3;7.8;;;;;;;;;;;;;
2019/05/12 11:47:20;;;;;;;10;7.5;;;;;;;;;;;;;
2019/05/12 11:49:45;;;;;;;11.3;8.6;;;;;;;;;;;;;
2019/05/12 11:52:10;;;;;;;9.1;7.8;;;;;;;;;;;;;
2019/05/12 11:54:35;;;;;;;9.4;7;;;;;;;;;;;;;
2019/05/12 11:57:00;;;;;;;12.4;8.2;;;;;;;;;;;;;
2019/05/12 11:59:25;;;;;;;10.9;7.7;;;;;;;;;;;;;
2019/05/12 12:01:50;;;;;;;9.6;7;;;;;;;;;;;;;
2019/05/12 12:04:15;;;;;;;10;7.5;;;;;;;;;;;;;
2019/05/12 12:06:40;;;;;;;8.6;7;;;;;;;;;;;;;
2019/05/12 12:09:06;;;;;;;11;7;;;;;;;;;;;;;
2019/05/12 12:11:31;;;;;;;10.7;7.3;;;;;;;;;;;;;
2019/05/12 12:13:56;;;;;;;10;7.6;;;;;;;;;;;;;
2019/05/12 12:16:21;;;;;;;10.5;8.5;;;;;;;;;;;;;
2019/05/12 12:18:46;;;;;;;10.8;7.3;;;;;;;;;;;;;
2019/05/12 12:21:11;;;;;;;8.8;6.2;;;;;;;;;;;;;
2019/05/12 12:23:37;;;;;;;10.6;6.7;;;;;;;;;;;;;
2019/05/12 12:26:02;;;;;;;11.7;7.5;;;;;;;;;;;;;
2019/05/12 12:28:27;;;;;;;9.4;6.6;;;;;;;;;;;;;
2019/05/12 12:30:52;;;;;;;11;6.8;;;;;;;;;;;;;
2019/05/12 12:33:17;;;;;;;10;6.7;;;;;;;;;;;;;
2019/05/12 12:35:42;;;;;;;8.6;6.4;;;;;;;;;;;;;
2019/05/12 12:38:07;;;;;;;8.6;6.3;;;;;;;;;;;;;
2019/05/12 12:40:32;;;;;;;10.2;6.4;;;;;;;;;;;;;
2019/05/12 12:42:57;;;;;;;9.1;6.6;;;;;;;;;;;;;
2019/05/12 12:45:31;;;;;;;10.8;6.7;;;;;;;;;;;;;
2019/05/12 12:47:47;;;;;;;11.3;6.7;;;;;;;;;;;;;
2019/05/12 12:50:13;;;;;;;11.4;7.4;;;;;;;;;;;;;
2019/05/12 12:52:38;;;;;;;9.5;6.8;;;;;;;;;;;;;
2019/05/12 12:55:03;;;;;;;9.3;7.1;;;;;;;;;;;;;
2019/05/12 12:57:28;;;;;;;9.4;7;;;;;;;;;;;;;
2019/05/12 12:59:53;;;;;;;10.8;6.7;;;;;;;;;;;;;
2019/05/12 13:02:18;;;;;;;11.2;6.6;;;;;;;;;;;;;
2019/05/12 13:04:43;;;;;;;10;6.8;;;;;;;;;;;;;
2019/05/12 13:07:08;;;;;;;10.8;7.1;;;;;;;;;;;;;
2019/05/12 13:09:33;;;;;;;13;8.4;;;;;;;;;;;;;
2019/05/12 13:11:59;;;;;;;12.5;9.5;;;;;;;;;;;;;
2019/05/12 13:14:24;;;;;;;10.8;6.6;;;;;;;;;;;;;
2019/05/12 13:16:49;;;;;;;10.7;6.5;;;;;;;;;;;;;
2019/05/12 13:19:14;;;;;;;8.8;6.2;;;;;;;;;;;;;
2019/05/12 13:21:39;;;;;;;8.8;6.1;;;;;;;;;;;;;
2019/05/12 13:24:04;;;;;;;9.2;5.5;;;;;;;;;;;;;
2019/05/12 13:26:29;;;;;;;8;5.6;;;;;;;;;;;;;
2019/05/12 13:28:54;;;;;;;8.8;6;;;;;;;;;;;;;
2019/05/12 13:31:19;;;;;;;7.4;6.2;;;;;;;;;;;;;
2019/05/12 13:33:45;;;;;;;7.8;5.6;;;;;;;;;;;;;
2019/05/12 13:36:10;;;;;;;7.8;5.3;;;;;;;;;;;;;
2019/05/12 13:38:35;;;;;;;8.4;5.1;;;;;;;;;;;;;
2019/05/12 13:41:00;;;;;;;8.2;5.4;;;;;;;;;;;;;
2019/05/12 13:43:25;;;;;;;6.4;4.5;;;;;;;;;;;;;
2019/05/12 13:45:50;;;;;;;9.5;4.5;;;;;;;;;;;;;
2019/05/12 13:48:16;;;;;;;10.5;4.4;;;;;;;;;;;;;
2019/05/12 13:50:41;;;;;;;7.5;4.5;;;;;;;;;;;;;
2019/05/12 13:53:06;;;;;;;7.9;4.2;;;;;;;;;;;;;
2019/05/12 13:55:31;;;;;;;6.4;4.1;;;;;;;;;;;;;
2019/05/12 13:57:56;;;;;;;6.8;4.4;;;;;;;;;;;;;
2019/05/12 14:00:21;;;;;;;7.7;4.4;;;;;;;;;;;;;
2019/05/12 14:02:46;;;;;;;7.2;4.6;;;;;;;;;;;;;
2019/05/12 14:05:12;;;;;;;7.1;4.5;;;;;;;;;;;;;
2019/05/12 14:07:37;;;;;;;8.4;4.6;;;;;;;;;;;;;
2019/05/12 14:10:02;;;;;;;9.2;4.7;;;;;;;;;;;;;
2019/05/12 14:12:27;;;;;;;7.4;5;;;;;;;;;;;;;
2019/05/12 14:14:52;;;;;;;6.7;4.9;;;;;;;;;;;;;
2019/05/12 14:17:17;;;;;;;9;5.6;;;;;;;;;;;;;
2019/05/12 14:19:43;;;;;;;9.1;5.6;;;;;;;;;;;;;
2019/05/12 14:22:08;;;;;;;10.2;6;;;;;;;;;;;;;
2019/05/12 14:24:33;;;;;;;8.2;4.9;;;;;;;;;;;;;
2019/05/12 14:26:58;;;;;;;7.5;5.3;;;;;;;;;;;;;
2019/05/12 14:29:23;;;;;;;6.3;4.9;;;;;;;;;;;;;
2019/05/12 14:31:48;;;;;;;8.1;4.8;;;;;;;;;;;;;
2019/05/12 14:34:13;;;;;;;9;5.4;;;;;;;;;;;;;
2019/05/12 14:36:38;;;;;;;8.2;5.1;;;;;;;;;;;;;
2019/05/12 14:39:05;;;;;;;7.7;5.2;;;;;;;;;;;;;
2019/05/12 14:41:29;;;;;;;9.1;5.1;;;;;;;;;;;;;
2019/05/12 14:43:55;;;;;;;6.9;5.4;;;;;;;;;;;;;
2019/05/12 14:46:22;;;;;;;7.1;4.8;;;;;;;;;;;;;
2019/05/12 14:48:45;;;;;;;7.5;4.9;;;;;;;;;;;;;
2019/05/12 14:51:12;;;;;;;7.3;4.7;;;;;;;;;;;;;
2019/05/12 14:53:37;;;;;;;9.4;5.2;;;;;;;;;;;;;
2019/05/12 14:56:02;;;;;;;7.9;4.9;;;;;;;;;;;;;
2019/05/12 14:58:27;;;;;;;8.1;5.1;;;;;;;;;;;;;
2019/05/12 15:00:52;;;;;;;7.5;4.4;;;;;;;;;;;;;
2019/05/12 15:03:17;;;;;;;8.1;4.8;;;;;;;;;;;;;
2019/05/12 15:05:43;;;;;;;9.4;5;;;;;;;;;;;;;
2019/05/12 15:08:08;;;;;;;7.6;5.1;;;;;;;;;;;;;
2019/05/12 15:10:33;;;;;;;6.9;4.8;;;;;;;;;;;;;
2019/05/12 15:12:58;;;;;;;7.2;4.3;;;;;;;;;;;;;
2019/05/12 15:15:23;;;;;;;8.5;5.3;;;;;;;;;;;;;
2019/05/12 15:17:48;;;;;;;8.1;4.8;;;;;;;;;;;;;
2019/05/12 15:20:13;;;;;;;7.5;4.9;;;;;;;;;;;;;
2019/05/12 15:22:38;;;;;;;6.9;5;;;;;;;;;;;;;
2019/05/12 15:25:03;;;;;;;9.4;5.3;;;;;;;;;;;;;
2019/05/12 15:27:28;;;;;;;9.4;4.5;;;;;;;;;;;;;
2019/05/12 15:29:53;;;;;;;6.6;4.3;;;;;;;;;;;;;
2019/05/12 15:32:19;;;;;;;7.5;4.7;;;;;;;;;;;;;
2019/05/12 15:34:44;;;;;;;6;4;;;;;;;;;;;;;
2019/05/12 15:37:09;;;;;;;6.8;4.5;;;;;;;;;;;;;
2019/05/12 15:39:34;;;;;;;6.3;4.5;;;;;;;;;;;;;
2019/05/12 15:41:59;;;;;;;5.8;4.1;;;;;;;;;;;;;
2019/05/12 15:44:24;;;;;;;7.4;4.8;;;;;;;;;;;;;
2019/05/12 15:46:49;;;;;;;6.8;4.2;;;;;;;;;;;;;
2019/05/12 15:49:14;;;;;;;7.6;5.2;;;;;;;;;;;;;
2019/05/12 15:51:41;;;;;;;6.9;4.7;;;;;;;;;;;;;
2019/05/12 15:54:06;;;;;;;6.3;4.3;;;;;;;;;;;;;
2019/05/12 15:56:31;;;;;;;7.7;4.3;;;;;;;;;;;;;
2019/05/12 15:58:56;;;;;;;7.9;4.2;;;;;;;;;;;;;
2019/05/12 16:01:22;;;;;;;7.6;4.3;;;;;;;;;;;;;
2019/05/12 16:03:47;;;;;;;6.4;4;;;;;;;;;;;;;
2019/05/12 16:06:12;;;;;;;7.4;3.9;;;;;;;;;;;;;
2019/05/12 16:08:37;;;;;;;8.2;4.4;;;;;;;;;;;;;
2019/05/12 16:11:02;;;;;;;11.9;8.3;;;;;;;;;;;;;
2019/05/12 16:13:27;;;;;;;10.5;8.4;;;;;;;;;;;;;
2019/05/12 16:15:52;;;;;;;11;7.6;;;;;;;;;;;;;
2019/05/12 16:18:17;;;;;;;11.2;8.4;;;;;;;;;;;;;
2019/05/12 16:20:42;;;;;;;9;6.9;;;;;;;;;;;;;
2019/05/12 16:23:07;;;;;;;6.9;5.7;;;;;;;;;;;;;
2019/05/12 16:25:32;;;;;;;6.9;4.9;;;;;;;;;;;;;
2019/05/12 16:27:57;;;;;;;9;5.9;;;;;;;;;;;;;
2019/05/12 16:30:23;;;;;;;9.1;6.6;;;;;;;;;;;;;
2019/05/12 16:32:48;;;;;;;8.7;5.1;;;;;;;;;;;;;
2019/05/12 16:35:13;;;;;;;6.2;4.4;;;;;;;;;;;;;
2019/05/12 16:37:38;;;;;;;7.2;5;;;;;;;;;;;;;
2019/05/12 16:40:03;;;;;;;6.5;4.5;;;;;;;;;;;;;
2019/05/12 16:42:28;;;;;;;7.3;5;;;;;;;;;;;;;
2019/05/12 16:44:54;;;;;;;7.2;4.4;;;;;;;;;;;;;
2019/05/12 16:47:19;;;;;;;8.6;4.6;;;;;;;;;;;;;
2019/05/12 16:49:44;;;;;;;8;4.5;;;;;;;;;;;;;
2019/05/12 16:52:09;;;;;;;6.1;4.1;;;;;;;;;;;;;
2019/05/12 16:54:34;;;;;;;5.5;3.9;;;;;;;;;;;;;
2019/05/12 16:56:59;;;;;;;7.3;4.7;;;;;;;;;;;;;
2019/05/12 16:59:24;;;;;;;6.2;4.1;;;;;;;;;;;;;
2019/05/12 17:01:49;;;;;;;7.4;4.7;;;;;;;;;;;;;
2019/05/12 17:04:14;;;;;;;7.6;5.2;;;;;;;;;;;;;
2019/05/12 17:06:40;;;;;;;7.4;5.2;;;;;;;;;;;;;
2019/05/12 17:09:06;;;;;;;6.7;5.3;;;;;;;;;;;;;
2019/05/12 17:11:30;;;;;;;8.3;5.6;;;;;;;;;;;;;
2019/05/12 17:13:55;;;;;;;7.4;5.8;;;;;;;;;;;;;
2019/05/12 17:16:20;;;;;;;7.2;5.8;;;;;;;;;;;;;
2019/05/12 17:18:45;;;;;;;9.4;6.2;;;;;;;;;;;;;
2019/05/12 17:21:11;;;;;;;9.9;5.9;;;;;;;;;;;;;
2019/05/12 17:23:36;;;;;;;8.4;6.2;;;;;;;;;;;;;
2019/05/12 17:26:01;;;;;;;8.2;6.6;;;;;;;;;;;;;
2019/05/12 17:28:26;;;;;;;10;7.1;;;;;;;;;;;;;
2019/05/12 17:30:51;;;;;;;8.7;7.2;;;;;;;;;;;;;
2019/05/12 17:33:17;;;;;;;9.8;7.1;;;;;;;;;;;;;
2019/05/12 17:35:42;;;;;;;7.7;6.4;;;;;;;;;;;;;
2019/05/12 17:38:07;;;;;;;7.9;6;;;;;;;;;;;;;
2019/05/12 17:40:32;;;;;;;9.1;6.1;;;;;;;;;;;;;
2019/05/12 17:42:58;;;;;;;9.7;6.1;;;;;;;;;;;;;
2019/05/12 17:45:23;;;;;;;7.9;5.5;;;;;;;;;;;;;
2019/05/12 17:47:48;;;;;;;7.7;5.8;;;;;;;;;;;;;
2019/05/12 17:50:13;;;;;;;7.2;5.5;;;;;;;;;;;;;
2019/05/12 17:52:38;;;;;;;8.6;5.6;;;;;;;;;;;;;
2019/05/12 17:55:03;;;;;;;8.6;6.2;;;;;;;;;;;;;
2019/05/12 17:57:29;;;;;;;7.9;6.2;;;;;;;;;;;;;
2019/05/12 17:59:54;;;;;;;10.6;6.7;;;;;;;;;;;;;
2019/05/12 18:02:19;;;;;;;7.5;6.3;;;;;;;;;;;;;
2019/05/12 18:04:44;;;;;;;12.4;8.2;;;;;;;;;;;;;
2019/05/12 18:07:09;;;;;;;9.4;7.6;;;;;;;;;;;;;
2019/05/12 18:09:34;;;;;;;10.8;8.1;;;;;;;;;;;;;
2019/05/12 18:11:59;;;;;;;11;8.2;;;;;;;;;;;;;
2019/05/12 18:14:25;;;;;;;11.8;8.4;;;;;;;;;;;;;
2019/05/12 18:16:50;;;;;;;11.1;8.4;;;;;;;;;;;;;
2019/05/12 18:19:15;;;;;;;12;8.6;;;;;;;;;;;;;
2019/05/12 18:21:40;;;;;;;10.2;8.3;;;;;;;;;;;;;
2019/05/12 18:24:05;;;;;;;11;8.1;;;;;;;;;;;;;
2019/05/12 18:26:30;;;;;;;12;8.6;;;;;;;;;;;;;
2019/05/12 18:28:55;;;;;;;11.8;8.9;;;;;;;;;;;;;
2019/05/12 18:31:20;;;;;;;10.8;9.2;;;;;;;;;;;;;
2019/05/12 18:33:47;;;;;;;11.2;9.5;;;;;;;;;;;;;
2019/05/12 18:36:12;;;;;;;10.6;9;;;;;;;;;;;;;
2019/05/12 18:38:38;;;;;;;10.7;9.5;;;;;;;;;;;;;
2019/05/12 18:41:03;;;;;;;12;9.8;;;;;;;;;;;;;
2019/05/12 18:43:28;;;;;;;14.5;9.7;;;;;;;;;;;;;
2019/05/12 18:45:53;;;;;;;12.8;9.9;;;;;;;;;;;;;
2019/05/12 18:48:18;;;;;;;11.1;9.4;;;;;;;;;;;;;
2019/05/12 18:50:43;;;;;;;12.7;10.2;;;;;;;;;;;;;
2019/05/12 18:53:08;;;;;;;13.7;10.2;;;;;;;;;;;;;
2019/05/12 18:55:33;;;;;;;11.5;9.9;;;;;;;;;;;;;
2019/05/12 18:57:58;;;;;;;13.7;10.4;;;;;;;;;;;;;
2019/05/12 19:00:24;;;;;;;13;11.1;;;;;;;;;;;;;
2019/05/12 19:02:48;;;;;;;12.7;10.5;;;;;;;;;;;;;
2019/05/12 19:05:13;;;;;;;12.9;10.2;;;;;;;;;;;;;
2019/05/12 19:07:38;;;;;;;12.4;9.6;;;;;;;;;;;;;
2019/05/12 19:10:03;;;;;;;11.9;10.6;;;;;;;;;;;;;
2019/05/12 19:12:30;;;;;;;11.1;9.7;;;;;;;;;;;;;
2019/05/12 19:14:55;;;;;;;12.4;10;;;;;;;;;;;;;
2019/05/12 19:17:21;;;;;;;10.8;9.2;;;;;;;;;;;;;